createdAt,value
2019-02-07T00:00:06.780Z,1013.36
2019-02-07T00:01:06.770Z,1013.32
2019-02-07T00:02:06.791Z,1013.35
2019-02-07T00:03:06.745Z,1013.25
2019-02-07T00:04:06.725Z,1013.22
2019-02-07T00:05:06.719Z,1013.22
2019-02-07T00:06:06.712Z,1013.21
2019-02-07T00:07:06.710Z,1013.21
2019-02-07T00:08:06.719Z,1013.16
2019-02-07T00:09:06.675Z,1013.21
2019-02-07T00:10:06.666Z,1013.16
2019-02-07T00:11:06.648Z,1013.15
2019-02-07T00:12:06.645Z,1013.14
2019-02-07T00:13:06.668Z,1013.14
2019-02-07T00:14:06.627Z,1013.12
2019-02-07T00:15:06.609Z,1013.09
2019-02-07T00:16:06.593Z,1013.05
2019-02-07T00:17:06.584Z,1013.04
2019-02-07T00:18:06.575Z,1013.02
2019-02-07T00:19:06.588Z,1013.13
2019-02-07T00:20:06.558Z,1013.05
2019-02-07T00:21:06.545Z,1013.06
2019-02-07T00:22:06.584Z,1013.03
2019-02-07T00:23:06.519Z,1013.10
2019-02-07T00:24:06.547Z,1013.08
2019-02-07T00:25:06.506Z,1013.00
2019-02-07T00:26:06.531Z,1013.02
2019-02-07T00:27:06.482Z,1012.98
2019-02-07T00:28:06.465Z,1012.97
2019-02-07T00:29:06.481Z,1012.93
2019-02-07T00:30:06.443Z,1012.96
2019-02-07T00:31:06.439Z,1012.89
2019-02-07T00:32:06.429Z,1012.93
2019-02-07T00:33:06.418Z,1012.93
2019-02-07T00:34:06.449Z,1012.98
2019-02-07T00:35:06.396Z,1012.94
2019-02-07T00:36:06.382Z,1012.99
2019-02-07T00:37:06.375Z,1012.91
2019-02-07T00:38:06.408Z,1012.90
2019-02-07T00:39:06.358Z,1012.92
2019-02-07T00:40:06.376Z,1012.92
2019-02-07T00:41:06.332Z,1012.87
2019-02-07T00:42:06.331Z,1012.89
2019-02-07T00:43:07.119Z,1012.88
2019-02-07T00:44:06.309Z,1012.86
2019-02-07T00:45:06.323Z,1012.80
2019-02-07T00:46:06.287Z,1012.82
2019-02-07T00:47:06.286Z,1012.86
2019-02-07T00:48:06.260Z,1012.83
2019-02-07T00:49:06.241Z,1012.81
2019-02-07T00:50:06.268Z,1012.80
2019-02-07T00:51:06.230Z,1012.75
2019-02-07T00:52:06.243Z,1012.76
2019-02-07T00:53:06.207Z,1012.74
2019-02-07T00:54:06.188Z,1012.76
2019-02-07T00:55:06.180Z,1012.73
2019-02-07T00:56:06.180Z,1012.77
2019-02-07T00:57:06.185Z,1012.76
2019-02-07T00:58:06.159Z,1012.76
2019-02-07T00:59:06.148Z,1012.79
2019-02-07T01:00:06.145Z,1012.81
2019-02-07T01:01:06.214Z,1012.82
2019-02-07T01:02:06.138Z,1012.81
2019-02-07T01:03:06.097Z,1012.79
2019-02-07T01:04:06.093Z,1012.79
2019-02-07T01:05:06.095Z,1012.75
2019-02-07T01:06:06.069Z,1012.73
2019-02-07T01:07:06.097Z,1012.73
2019-02-07T01:08:06.073Z,1012.74
2019-02-07T01:09:06.029Z,1012.70
2019-02-07T01:10:06.040Z,1012.68
2019-02-07T01:11:06.017Z,1012.61
2019-02-07T01:12:06.019Z,1012.59
2019-02-07T01:13:05.991Z,1012.54
2019-02-07T01:14:05.977Z,1012.54
2019-02-07T01:15:06.007Z,1012.54
2019-02-07T01:16:05.963Z,1012.50
2019-02-07T01:17:05.951Z,1012.39
2019-02-07T01:18:05.967Z,1012.40
2019-02-07T01:19:05.929Z,1012.46
2019-02-07T01:20:05.916Z,1012.38
2019-02-07T01:21:05.905Z,1012.39
2019-02-07T01:22:05.892Z,1012.35
2019-02-07T01:23:05.915Z,1012.29
2019-02-07T01:24:05.882Z,1012.27
2019-02-07T01:25:05.866Z,1012.31
2019-02-07T01:26:05.854Z,1012.35
2019-02-07T01:27:05.841Z,1012.36
2019-02-07T01:28:05.926Z,1012.36
2019-02-07T01:29:05.825Z,1012.34
2019-02-07T01:30:05.815Z,1012.30
2019-02-07T01:31:05.805Z,1012.36
2019-02-07T01:32:05.791Z,1012.29
2019-02-07T01:33:05.777Z,1012.25
2019-02-07T01:34:05.804Z,1012.26
2019-02-07T01:35:05.754Z,1012.22
2019-02-07T01:36:05.749Z,1012.22
2019-02-07T01:37:05.768Z,1012.19
2019-02-07T01:38:05.731Z,1012.22
2019-02-07T01:39:05.717Z,1012.20
2019-02-07T01:40:05.704Z,1012.21
2019-02-07T01:41:05.695Z,1012.19
2019-02-07T01:42:05.718Z,1012.20
2019-02-07T01:43:05.677Z,1012.20
2019-02-07T01:44:05.665Z,1012.22
2019-02-07T01:45:12.812Z,1012.19
2019-02-07T01:46:06.638Z,1012.20
2019-02-07T01:47:05.628Z,1012.17
2019-02-07T01:48:05.688Z,1012.12
2019-02-07T01:49:05.612Z,1012.16
2019-02-07T01:50:05.638Z,1012.15
2019-02-07T01:51:05.608Z,1012.13
2019-02-07T01:52:05.573Z,1012.15
2019-02-07T01:53:05.596Z,1012.19
2019-02-07T01:54:05.555Z,1012.22
2019-02-07T01:55:05.548Z,1012.22
2019-02-07T01:56:05.538Z,1012.19
2019-02-07T01:57:05.527Z,1012.18
2019-02-07T01:58:05.536Z,1012.13
2019-02-07T01:59:05.501Z,1012.09
2019-02-07T02:00:05.497Z,1012.07
2019-02-07T02:01:05.507Z,1012.03
2019-02-07T02:02:05.475Z,1012.01
2019-02-07T02:03:05.486Z,1011.97
2019-02-07T02:04:05.451Z,1011.95
2019-02-07T02:05:05.442Z,1011.92
2019-02-07T02:06:05.467Z,1011.91
2019-02-07T02:07:05.417Z,1011.88
2019-02-07T02:08:05.413Z,1011.83
2019-02-07T02:09:05.399Z,1011.79
2019-02-07T02:10:05.390Z,1011.77
2019-02-07T02:11:05.382Z,1011.76
2019-02-07T02:12:05.399Z,1011.76
2019-02-07T02:13:05.350Z,1011.72
2019-02-07T02:14:05.349Z,1011.72
2019-02-07T02:15:05.340Z,1011.76
2019-02-07T02:16:05.323Z,1011.71
2019-02-07T02:17:05.312Z,1011.74
2019-02-07T02:18:05.329Z,1011.74
2019-02-07T02:19:05.288Z,1011.71
2019-02-07T02:20:05.286Z,1011.65
2019-02-07T02:21:05.292Z,1011.70
2019-02-07T02:22:05.262Z,1011.62
2019-02-07T02:23:05.277Z,1011.60
2019-02-07T02:24:05.247Z,1011.58
2019-02-07T02:25:05.225Z,1011.54
2019-02-07T02:26:05.220Z,1011.51
2019-02-07T02:27:05.225Z,1011.44
2019-02-07T02:28:05.202Z,1011.44
2019-02-07T02:29:05.191Z,1011.46
2019-02-07T02:30:05.177Z,1011.38
2019-02-07T02:31:05.194Z,1011.40
2019-02-07T02:32:05.156Z,1011.40
2019-02-07T02:33:05.170Z,1011.45
2019-02-07T02:34:05.137Z,1011.42
2019-02-07T02:35:05.125Z,1011.41
2019-02-07T02:36:05.109Z,1011.36
2019-02-07T02:37:05.101Z,1011.42
2019-02-07T02:38:05.121Z,1011.42
2019-02-07T02:39:05.078Z,1011.37
2019-02-07T02:40:05.085Z,1011.38
2019-02-07T02:41:05.056Z,1011.34
2019-02-07T02:42:05.049Z,1011.33
2019-02-07T02:43:05.045Z,1011.29
2019-02-07T02:44:05.070Z,1011.28
2019-02-07T02:45:05.017Z,1011.27
2019-02-07T02:46:05.009Z,1011.30
2019-02-07T02:47:04.999Z,1011.23
2019-02-07T02:48:04.997Z,1011.19
2019-02-07T02:49:04.971Z,1011.19
2019-02-07T02:50:05.005Z,1011.16
2019-02-07T02:51:04.960Z,1011.16
2019-02-07T02:52:04.947Z,1011.08
2019-02-07T02:53:04.933Z,1011.09
2019-02-07T02:54:04.934Z,1011.10
2019-02-07T02:55:04.915Z,1011.13
2019-02-07T02:56:04.927Z,1011.06
2019-02-07T02:57:04.887Z,1011.04
2019-02-07T02:58:04.884Z,1011.08
2019-02-07T02:59:04.871Z,1011.06
2019-02-07T03:00:04.861Z,1011.04
2019-02-07T03:01:04.878Z,1011.03
2019-02-07T03:02:04.835Z,1011.08
2019-02-07T03:03:04.825Z,1011.08
2019-02-07T03:04:04.824Z,1011.09
2019-02-07T03:05:07.598Z,1011.12
2019-02-07T03:06:04.859Z,1011.07
2019-02-07T03:07:04.782Z,1011.07
2019-02-07T03:08:04.776Z,1011.11
2019-02-07T03:09:04.799Z,1011.08
2019-02-07T03:10:04.756Z,1011.03
2019-02-07T03:11:04.746Z,1011.04
2019-02-07T03:12:04.728Z,1011.07
2019-02-07T03:13:04.720Z,1011.07
2019-02-07T03:14:04.708Z,1011.08
2019-02-07T03:15:04.718Z,1011.06
2019-02-07T03:16:04.693Z,1011.02
2019-02-07T03:17:04.681Z,1011.02
2019-02-07T03:18:04.667Z,1010.99
2019-02-07T03:19:04.654Z,1010.93
2019-02-07T03:20:04.689Z,1010.96
2019-02-07T03:21:04.640Z,1010.90
2019-02-07T03:22:04.629Z,1010.86
2019-02-07T03:23:04.617Z,1010.86
2019-02-07T03:24:04.606Z,1010.85
2019-02-07T03:25:04.611Z,1010.85
2019-02-07T03:26:04.577Z,1010.81
2019-02-07T03:27:04.569Z,1010.83
2019-02-07T03:28:04.583Z,1010.85
2019-02-07T03:29:04.561Z,1010.82
2019-02-07T03:30:04.562Z,1010.77
2019-02-07T03:31:04.535Z,1010.71
2019-02-07T03:32:04.518Z,1010.67
2019-02-07T03:33:04.548Z,1010.71
2019-02-07T03:34:04.506Z,1010.68
2019-02-07T03:35:04.490Z,1010.71
2019-02-07T03:36:04.527Z,1010.65
2019-02-07T03:37:04.462Z,1010.64
2019-02-07T03:38:04.455Z,1010.63
2019-02-07T03:39:04.443Z,1010.58
2019-02-07T03:40:04.464Z,1010.58
2019-02-07T03:41:04.459Z,1010.57
2019-02-07T03:42:04.417Z,1010.61
2019-02-07T03:43:04.411Z,1010.55
2019-02-07T03:44:04.390Z,1010.54
2019-02-07T03:45:04.380Z,1010.63
2019-02-07T03:46:04.401Z,1010.54
2019-02-07T03:47:04.356Z,1010.52
2019-02-07T03:48:04.356Z,1010.49
2019-02-07T03:49:04.345Z,1010.46
2019-02-07T03:50:04.330Z,1010.49
2019-02-07T03:51:04.351Z,1010.50
2019-02-07T03:52:04.313Z,1010.46
2019-02-07T03:53:04.303Z,1010.50
2019-02-07T03:54:04.299Z,1010.45
2019-02-07T03:55:04.280Z,1010.45
2019-02-07T03:56:04.267Z,1010.47
2019-02-07T03:57:04.271Z,1010.43
2019-02-07T03:58:04.243Z,1010.41
2019-02-07T03:59:04.236Z,1010.43
2019-02-07T04:00:04.225Z,1010.42
2019-02-07T04:01:04.220Z,1010.39
2019-02-07T04:02:04.228Z,1010.39
2019-02-07T04:03:04.225Z,1010.43
2019-02-07T04:04:04.179Z,1010.40
2019-02-07T04:05:04.171Z,1010.40
2019-02-07T04:06:04.196Z,1010.43
2019-02-07T04:07:04.173Z,1010.43
2019-02-07T04:08:04.139Z,1010.39
2019-02-07T04:09:04.126Z,1010.36
2019-02-07T04:10:04.119Z,1010.38
2019-02-07T04:11:04.104Z,1010.36
2019-02-07T04:12:04.125Z,1010.37
2019-02-07T04:13:04.098Z,1010.36
2019-02-07T04:14:04.081Z,1010.33
2019-02-07T04:15:04.111Z,1010.33
2019-02-07T04:16:14.677Z,1010.36
2019-02-07T04:17:05.079Z,1010.35
2019-02-07T04:18:04.032Z,1010.34
2019-02-07T04:19:04.022Z,1010.33
2019-02-07T04:20:04.017Z,1010.37
2019-02-07T04:21:04.006Z,1010.35
2019-02-07T04:22:03.994Z,1010.35
2019-02-07T04:23:03.996Z,1010.34
2019-02-07T04:24:03.980Z,1010.35
2019-02-07T04:25:03.962Z,1010.35
2019-02-07T04:26:03.954Z,1010.30
2019-02-07T04:27:03.941Z,1010.25
2019-02-07T04:28:03.967Z,1010.23
2019-02-07T04:29:03.920Z,1010.20
2019-02-07T04:30:03.902Z,1010.20
2019-02-07T04:31:03.893Z,1010.21
2019-02-07T04:32:03.891Z,1010.20
2019-02-07T04:33:03.914Z,1010.19
2019-02-07T04:34:03.972Z,1010.18
2019-02-07T04:35:03.860Z,1010.17
2019-02-07T04:36:03.841Z,1010.14
2019-02-07T04:37:03.839Z,1010.06
2019-02-07T04:38:03.860Z,1010.04
2019-02-07T04:39:03.819Z,1010.03
2019-02-07T04:40:03.809Z,1010.01
2019-02-07T04:41:03.787Z,1010.02
2019-02-07T04:42:03.782Z,1009.93
2019-02-07T04:43:03.767Z,1010.00
2019-02-07T04:44:03.799Z,1009.97
2019-02-07T04:45:03.752Z,1009.99
2019-02-07T04:46:03.784Z,1009.94
2019-02-07T04:47:03.733Z,1009.93
2019-02-07T04:48:03.763Z,1009.88
2019-02-07T04:49:03.728Z,1009.89
2019-02-07T04:50:03.697Z,1009.92
2019-02-07T04:51:03.685Z,1009.91
2019-02-07T04:52:03.679Z,1009.89
2019-02-07T04:53:03.668Z,1009.86
2019-02-07T04:54:03.682Z,1009.86
2019-02-07T04:55:03.648Z,1009.85
2019-02-07T04:56:03.641Z,1009.83
2019-02-07T04:57:03.627Z,1009.82
2019-02-07T04:58:03.615Z,1009.79
2019-02-07T04:59:03.629Z,1009.72
2019-02-07T05:00:03.586Z,1009.73
2019-02-07T05:01:03.581Z,1009.70
2019-02-07T05:02:03.572Z,1009.70
2019-02-07T05:03:03.557Z,1009.67
2019-02-07T05:04:03.576Z,1009.60
2019-02-07T05:05:03.550Z,1009.56
2019-02-07T05:06:03.535Z,1009.54
2019-02-07T05:07:03.522Z,1009.56
2019-02-07T05:08:03.502Z,1009.57
2019-02-07T05:09:03.541Z,1009.58
2019-02-07T05:10:03.487Z,1009.61
2019-02-07T05:11:03.482Z,1009.57
2019-02-07T05:12:03.466Z,1009.65
2019-02-07T05:13:03.459Z,1009.69
2019-02-07T05:14:03.472Z,1009.67
2019-02-07T05:15:03.428Z,1009.66
2019-02-07T05:16:03.538Z,1009.69
2019-02-07T05:17:03.415Z,1009.61
2019-02-07T05:18:03.408Z,1009.56
2019-02-07T05:19:03.395Z,1009.53
2019-02-07T05:20:03.398Z,1009.52
2019-02-07T05:21:03.363Z,1009.45
2019-02-07T05:22:03.355Z,1009.51
2019-02-07T05:23:03.346Z,1009.52
2019-02-07T05:24:03.351Z,1009.50
2019-02-07T05:25:03.366Z,1009.48
2019-02-07T05:26:03.313Z,1009.47
2019-02-07T05:27:03.303Z,1009.45
2019-02-07T05:28:03.303Z,1009.47
2019-02-07T05:29:03.287Z,1009.42
2019-02-07T05:30:03.279Z,1009.37
2019-02-07T05:31:03.285Z,1009.32
2019-02-07T05:32:03.251Z,1009.26
2019-02-07T05:33:03.239Z,1009.25
2019-02-07T05:34:03.229Z,1009.26
2019-02-07T05:35:03.221Z,1009.23
2019-02-07T05:36:03.245Z,1009.24
2019-02-07T05:37:03.219Z,1009.27
2019-02-07T05:38:03.216Z,1009.28
2019-02-07T05:39:03.186Z,1009.28
2019-02-07T05:40:03.170Z,1009.19
2019-02-07T05:41:03.221Z,1009.23
2019-02-07T05:42:03.160Z,1009.19
2019-02-07T05:43:03.142Z,1009.19
2019-02-07T05:44:03.130Z,1009.16
2019-02-07T05:45:03.113Z,1009.19
2019-02-07T05:46:03.105Z,1009.25
2019-02-07T05:47:03.126Z,1009.26
2019-02-07T05:48:03.091Z,1009.24
2019-02-07T05:49:03.080Z,1009.24
2019-02-07T05:50:03.081Z,1009.24
2019-02-07T05:51:03.058Z,1009.18
2019-02-07T05:52:03.070Z,1009.16
2019-02-07T05:53:03.031Z,1009.18
2019-02-07T05:54:03.039Z,1009.17
2019-02-07T05:55:03.006Z,1009.11
2019-02-07T05:56:03.005Z,1009.18
2019-02-07T05:57:02.994Z,1009.11
2019-02-07T05:58:02.999Z,1009.11
2019-02-07T05:59:02.967Z,1009.12
2019-02-07T06:00:02.959Z,1009.13
2019-02-07T06:01:02.953Z,1009.14
2019-02-07T06:02:02.939Z,1009.24
2019-02-07T06:03:02.967Z,1009.20
2019-02-07T06:04:02.938Z,1009.18
2019-02-07T06:05:02.901Z,1009.14
2019-02-07T06:06:02.904Z,1009.11
2019-02-07T06:07:02.883Z,1009.11
2019-02-07T06:08:02.880Z,1009.07
2019-02-07T06:09:02.891Z,1008.96
2019-02-07T06:10:02.884Z,1009.07
2019-02-07T06:11:02.846Z,1009.01
2019-02-07T06:12:02.831Z,1009.02
2019-02-07T06:13:02.819Z,1009.07
2019-02-07T06:14:02.847Z,1009.07
2019-02-07T06:15:02.803Z,1009.08
2019-02-07T06:16:02.791Z,1009.08
2019-02-07T06:17:03.154Z,1009.11
2019-02-07T06:18:02.768Z,1009.07
2019-02-07T06:19:02.787Z,1009.04
2019-02-07T06:20:02.749Z,1009.04
2019-02-07T06:21:02.739Z,1009.03
2019-02-07T06:22:02.735Z,1009.00
2019-02-07T06:23:02.717Z,1009.00
2019-02-07T06:24:02.734Z,1008.98
2019-02-07T06:25:02.693Z,1008.97
2019-02-07T06:26:02.704Z,1008.95
2019-02-07T06:27:02.671Z,1008.92
2019-02-07T06:28:02.666Z,1008.91
2019-02-07T06:29:02.655Z,1008.92
2019-02-07T06:30:02.659Z,1008.87
2019-02-07T06:31:02.660Z,1008.88
2019-02-07T06:32:02.642Z,1008.85
2019-02-07T06:33:02.638Z,1008.84
2019-02-07T06:34:02.609Z,1008.86
2019-02-07T06:35:02.616Z,1008.82
2019-02-07T06:36:02.580Z,1008.80
2019-02-07T06:37:02.566Z,1008.81
2019-02-07T06:38:02.557Z,1008.82
2019-02-07T06:39:02.545Z,1008.83
2019-02-07T06:40:02.540Z,1008.84
2019-02-07T06:41:02.556Z,1008.83
2019-02-07T06:42:02.523Z,1008.82
2019-02-07T06:43:02.524Z,1008.80
2019-02-07T06:44:02.500Z,1008.75
2019-02-07T06:45:02.492Z,1008.78
2019-02-07T06:46:02.510Z,1008.81
2019-02-07T06:47:13.000Z,1008.73
2019-02-07T06:48:03.451Z,1008.73
2019-02-07T06:49:02.439Z,1008.68
2019-02-07T06:50:02.433Z,1008.64
2019-02-07T06:51:02.441Z,1008.57
2019-02-07T06:52:02.447Z,1008.59
2019-02-07T06:53:02.404Z,1008.55
2019-02-07T06:54:02.392Z,1008.52
2019-02-07T06:55:02.381Z,1008.52
2019-02-07T06:56:02.367Z,1008.55
2019-02-07T06:57:02.387Z,1008.52
2019-02-07T06:58:02.345Z,1008.49
2019-02-07T06:59:02.341Z,1008.50
2019-02-07T07:00:02.333Z,1008.47
2019-02-07T07:01:02.325Z,1008.51
2019-02-07T07:02:02.337Z,1008.49
2019-02-07T07:03:02.309Z,1008.51
2019-02-07T07:04:02.286Z,1008.54
2019-02-07T07:05:02.278Z,1008.51
2019-02-07T07:06:02.268Z,1008.49
2019-02-07T07:07:02.260Z,1008.46
2019-02-07T07:08:02.270Z,1008.49
2019-02-07T07:09:02.229Z,1008.48
2019-02-07T07:10:02.226Z,1008.50
2019-02-07T07:11:02.232Z,1008.52
2019-02-07T07:12:02.232Z,1008.52
2019-02-07T07:13:02.230Z,1008.55
2019-02-07T07:14:02.182Z,1008.52
2019-02-07T07:15:02.188Z,1008.52
2019-02-07T07:16:02.154Z,1008.50
2019-02-07T07:17:02.144Z,1008.58
2019-02-07T07:18:02.174Z,1008.46
2019-02-07T07:19:02.126Z,1008.47
2019-02-07T07:20:02.113Z,1008.53
2019-02-07T07:21:02.110Z,1008.56
2019-02-07T07:22:02.090Z,1008.55
2019-02-07T07:23:02.101Z,1008.60
2019-02-07T07:24:02.091Z,1008.60
2019-02-07T07:25:02.067Z,1008.51
2019-02-07T07:26:02.058Z,1008.51
2019-02-07T07:27:02.048Z,1008.46
2019-02-07T07:28:02.068Z,1008.43
2019-02-07T07:29:02.017Z,1008.41
2019-02-07T07:30:02.036Z,1008.43
2019-02-07T07:31:01.999Z,1008.50
2019-02-07T07:32:01.991Z,1008.49
2019-02-07T07:33:01.983Z,1008.56
2019-02-07T07:34:01.993Z,1008.52
2019-02-07T07:35:01.973Z,1008.54
2019-02-07T07:36:01.947Z,1008.51
2019-02-07T07:37:01.938Z,1008.51
2019-02-07T07:38:01.932Z,1008.49
2019-02-07T07:39:01.944Z,1008.51
2019-02-07T07:40:01.902Z,1008.50
2019-02-07T07:41:01.889Z,1008.45
2019-02-07T07:42:01.883Z,1008.47
2019-02-07T07:43:01.868Z,1008.39
2019-02-07T07:44:01.883Z,1008.40
2019-02-07T07:45:01.862Z,1008.46
2019-02-07T07:46:01.844Z,1008.42
2019-02-07T07:47:01.834Z,1008.38
2019-02-07T07:48:01.820Z,1008.37
2019-02-07T07:49:01.838Z,1008.31
2019-02-07T07:50:01.803Z,1008.29
2019-02-07T07:51:01.792Z,1008.25
2019-02-07T07:52:01.775Z,1008.29
2019-02-07T07:53:01.765Z,1008.23
2019-02-07T07:54:01.788Z,1008.26
2019-02-07T07:55:01.743Z,1008.23
2019-02-07T07:56:01.741Z,1008.20
2019-02-07T07:57:01.730Z,1008.18
2019-02-07T07:58:01.718Z,1008.12
2019-02-07T07:59:01.706Z,1008.08
2019-02-07T08:00:01.720Z,1008.08
2019-02-07T08:01:01.680Z,1008.13
2019-02-07T08:02:01.673Z,1008.06
2019-02-07T08:03:01.681Z,1008.08
2019-02-07T08:04:01.653Z,1008.05
2019-02-07T08:05:01.693Z,1008.02
2019-02-07T08:06:01.626Z,1007.92
2019-02-07T08:07:01.615Z,1007.97
2019-02-07T08:08:01.617Z,1007.96
2019-02-07T08:09:01.602Z,1007.99
2019-02-07T08:10:01.625Z,1007.95
2019-02-07T08:11:01.604Z,1007.96
2019-02-07T08:12:01.562Z,1007.94
2019-02-07T08:13:01.570Z,1007.95
2019-02-07T08:14:01.566Z,1007.91
2019-02-07T08:15:01.531Z,1007.90
2019-02-07T08:16:01.550Z,1007.90
2019-02-07T08:17:01.518Z,1007.92
2019-02-07T08:18:01.508Z,1007.87
2019-02-07T08:19:01.497Z,1007.92
2019-02-07T08:20:01.479Z,1007.95
2019-02-07T08:21:01.496Z,1007.87
2019-02-07T08:22:01.468Z,1007.88
2019-02-07T08:23:01.453Z,1007.83
2019-02-07T08:24:01.436Z,1007.81
2019-02-07T08:25:01.457Z,1007.80
2019-02-07T08:26:01.416Z,1007.79
2019-02-07T08:27:01.408Z,1007.83
2019-02-07T08:28:01.402Z,1007.83
2019-02-07T08:29:01.412Z,1007.77
2019-02-07T08:30:01.383Z,1007.75
2019-02-07T08:31:01.408Z,1007.74
2019-02-07T08:32:01.354Z,1007.73
2019-02-07T08:33:01.344Z,1007.70
2019-02-07T08:34:01.334Z,1007.68
2019-02-07T08:35:01.352Z,1007.66
2019-02-07T08:36:01.316Z,1007.67
2019-02-07T08:37:01.315Z,1007.66
2019-02-07T08:38:01.298Z,1007.64
2019-02-07T08:39:01.297Z,1007.63
2019-02-07T08:40:01.273Z,1007.62
2019-02-07T08:41:01.290Z,1007.53
2019-02-07T08:42:01.285Z,1007.50
2019-02-07T08:43:01.242Z,1007.47
2019-02-07T08:44:01.227Z,1007.45
2019-02-07T08:45:01.248Z,1007.40
2019-02-07T08:46:01.206Z,1007.43
2019-02-07T08:47:01.208Z,1007.51
2019-02-07T08:48:03.703Z,1007.41
2019-02-07T08:49:01.259Z,1007.38
2019-02-07T08:50:01.173Z,1007.45
2019-02-07T08:51:01.157Z,1007.36
2019-02-07T08:52:01.140Z,1007.32
2019-02-07T08:53:01.164Z,1007.35
2019-02-07T08:54:01.126Z,1007.38
2019-02-07T08:55:01.123Z,1007.30
2019-02-07T08:56:01.119Z,1007.27
2019-02-07T08:57:01.089Z,1007.31
2019-02-07T08:58:01.077Z,1007.30
2019-02-07T08:59:01.094Z,1007.32
2019-02-07T09:00:01.062Z,1007.31
2019-02-07T09:01:01.054Z,1007.30
2019-02-07T09:02:01.040Z,1007.29
2019-02-07T09:03:01.056Z,1007.26
2019-02-07T09:04:01.071Z,1007.21
2019-02-07T09:05:01.003Z,1007.26
2019-02-07T09:06:01.077Z,1007.23
2019-02-07T09:07:00.982Z,1007.22
2019-02-07T09:08:00.980Z,1007.20
2019-02-07T09:09:00.990Z,1007.17
2019-02-07T09:10:00.949Z,1007.14
2019-02-07T09:11:00.948Z,1007.13
2019-02-07T09:12:00.982Z,1007.14
2019-02-07T09:13:00.937Z,1007.08
2019-02-07T09:14:01.010Z,1007.08
2019-02-07T09:15:00.964Z,1007.06
2019-02-07T09:16:00.969Z,1007.09
2019-02-07T09:17:00.934Z,1007.06
2019-02-07T09:18:09.999Z,1007.04
2019-02-07T09:19:01.955Z,1007.04
2019-02-07T09:20:00.879Z,1006.98
2019-02-07T09:21:00.861Z,1006.99
2019-02-07T09:22:00.901Z,1006.97
2019-02-07T09:23:00.853Z,1006.94
2019-02-07T09:24:00.884Z,1006.90
2019-02-07T09:25:00.872Z,1006.92
2019-02-07T09:26:00.963Z,1006.90
2019-02-07T09:27:00.887Z,1006.91
2019-02-07T09:28:00.795Z,1006.87
2019-02-07T09:29:00.866Z,1006.84
2019-02-07T09:30:00.847Z,1006.82
2019-02-07T09:31:00.937Z,1006.78
2019-02-07T09:32:00.750Z,1006.83
2019-02-07T09:33:00.741Z,1006.81
2019-02-07T09:34:00.742Z,1006.77
2019-02-07T09:35:00.789Z,1006.87
2019-02-07T09:36:05.347Z,1006.85
2019-02-07T09:37:01.675Z,1006.91
2019-02-07T09:38:00.658Z,1006.94
2019-02-07T09:39:00.727Z,1006.99
2019-02-07T09:40:01.621Z,1007.03
2019-02-07T09:41:00.777Z,1006.90
2019-02-07T09:42:00.623Z,1006.91
2019-02-07T09:43:00.617Z,1006.93
2019-02-07T09:44:00.612Z,1006.82
2019-02-07T09:45:00.627Z,1006.87
2019-02-07T09:46:00.591Z,1006.79
2019-02-07T09:47:00.708Z,1006.90
2019-02-07T09:48:00.592Z,1006.78
2019-02-07T09:49:00.550Z,1006.82
2019-02-07T09:50:00.659Z,1006.75
2019-02-07T09:51:00.541Z,1006.84
2019-02-07T09:52:00.560Z,1006.83
2019-02-07T09:53:00.514Z,1006.86
2019-02-07T09:54:00.518Z,1006.81
2019-02-07T09:55:00.510Z,1006.88
2019-02-07T09:56:00.559Z,1006.89
2019-02-07T09:57:00.694Z,1006.90
2019-02-07T09:58:00.541Z,1006.94
2019-02-07T09:59:03.243Z,1006.86
2019-02-07T10:00:00.435Z,1006.78
2019-02-07T10:01:00.555Z,1006.83
2019-02-07T10:02:00.406Z,1006.78
2019-02-07T10:03:00.505Z,1006.79
2019-02-07T10:04:00.477Z,1006.76
2019-02-07T10:05:00.444Z,1006.92
2019-02-07T10:06:00.378Z,1006.69
2019-02-07T10:07:00.362Z,1006.64
2019-02-07T10:08:00.347Z,1006.74
2019-02-07T10:09:00.353Z,1006.77
2019-02-07T10:10:00.368Z,1006.63
2019-02-07T10:11:00.327Z,1006.61
2019-02-07T10:12:00.377Z,1006.58
2019-02-07T10:13:00.323Z,1006.59
2019-02-07T10:14:00.299Z,1006.65
2019-02-07T10:15:00.324Z,1006.64
2019-02-07T10:16:00.321Z,1006.64
2019-02-07T10:17:00.294Z,1006.68
2019-02-07T10:18:00.275Z,1006.66
2019-02-07T10:19:00.341Z,1006.67
2019-02-07T10:20:00.250Z,1006.59
2019-02-07T10:21:00.311Z,1006.61
2019-02-07T10:22:00.239Z,1006.62
2019-02-07T10:23:00.231Z,1006.53
2019-02-07T10:24:00.305Z,1006.57
2019-02-07T10:25:00.353Z,1006.46
2019-02-07T10:26:00.213Z,1006.44
2019-02-07T10:27:00.177Z,1006.44
2019-02-07T10:28:00.169Z,1006.40
2019-02-07T10:29:00.237Z,1006.40
2019-02-07T10:30:00.128Z,1006.37
2019-02-07T10:31:00.164Z,1006.39
2019-02-07T10:32:00.099Z,1006.35
2019-02-07T10:33:00.161Z,1006.33
2019-02-07T10:34:00.110Z,1006.25
2019-02-07T10:35:00.196Z,1006.20
2019-02-07T10:36:00.111Z,1006.19
2019-02-07T10:37:00.037Z,1006.21
2019-02-07T10:38:00.063Z,1006.16
2019-02-07T10:39:00.061Z,1006.17
2019-02-07T10:40:00.143Z,1006.21
2019-02-07T10:41:00.037Z,1006.21
2019-02-07T10:42:00.017Z,1006.23
2019-02-07T10:43:00.007Z,1006.14
2019-02-07T10:44:00.012Z,1006.17
2019-02-07T10:45:00.059Z,1006.16
2019-02-07T10:46:00.035Z,1006.23
2019-02-07T10:46:59.976Z,1006.23
2019-02-07T10:48:00.009Z,1006.26
2019-02-07T10:48:59.999Z,1006.26
2019-02-07T10:49:59.924Z,1006.13
2019-02-07T10:50:59.958Z,1006.16
2019-02-07T10:51:59.916Z,1006.14
2019-02-07T10:52:59.947Z,1006.07
2019-02-07T10:53:59.855Z,1006.08
2019-02-07T10:54:59.850Z,1005.99
2019-02-07T10:55:59.879Z,1005.91
2019-02-07T10:56:59.858Z,1006.00
2019-02-07T10:57:59.870Z,1005.90
2019-02-07T10:58:59.833Z,1005.91
2019-02-07T10:59:59.929Z,1005.88
2019-02-07T11:00:59.834Z,1005.88
2019-02-07T11:01:59.947Z,1005.85
2019-02-07T11:02:59.813Z,1005.81
2019-02-07T11:03:59.857Z,1005.78
2019-02-07T11:04:59.799Z,1005.76
2019-02-07T11:05:59.832Z,1005.81
2019-02-07T11:06:59.806Z,1005.74
2019-02-07T11:07:59.766Z,1005.72
2019-02-07T11:08:59.781Z,1005.70
2019-02-07T11:09:59.713Z,1005.85
2019-02-07T11:11:02.650Z,1005.69
2019-02-07T11:11:59.699Z,1005.67
2019-02-07T11:12:59.682Z,1005.66
2019-02-07T11:14:00.639Z,1005.75
2019-02-07T11:14:59.669Z,1005.68
2019-02-07T11:15:59.659Z,1005.71
2019-02-07T11:16:59.694Z,1005.68
2019-02-07T11:17:59.647Z,1005.58
2019-02-07T11:18:59.596Z,1005.51
2019-02-07T11:19:59.625Z,1005.47
2019-02-07T11:20:59.597Z,1005.50
2019-02-07T11:21:59.631Z,1005.56
2019-02-07T11:22:59.573Z,1005.52
2019-02-07T11:23:59.545Z,1005.49
2019-02-07T11:24:59.590Z,1005.60
2019-02-07T11:25:59.536Z,1005.52
2019-02-07T11:26:59.508Z,1005.45
2019-02-07T11:28:09.843Z,1005.40
2019-02-07T11:29:00.503Z,1005.39
2019-02-07T11:29:59.480Z,1005.41
2019-02-07T11:30:59.478Z,1005.41
2019-02-07T11:31:59.468Z,1005.39
2019-02-07T11:32:59.526Z,1005.35
2019-02-07T11:33:59.457Z,1005.17
2019-02-07T11:34:59.444Z,1005.13
2019-02-07T11:35:59.462Z,1005.17
2019-02-07T11:36:59.422Z,1005.13
2019-02-07T11:37:59.473Z,1005.14
2019-02-07T11:38:59.441Z,1005.02
2019-02-07T11:39:59.376Z,1005.25
2019-02-07T11:40:59.361Z,1005.04
2019-02-07T11:41:59.339Z,1005.07
2019-02-07T11:42:59.326Z,1005.07
2019-02-07T11:43:59.341Z,1005.11
2019-02-07T11:44:59.311Z,1005.17
2019-02-07T11:45:59.316Z,1005.15
2019-02-07T11:47:05.547Z,1005.14
2019-02-07T11:48:00.286Z,1005.10
2019-02-07T11:49:06.543Z,1005.07
2019-02-07T11:50:00.310Z,1005.15
2019-02-07T11:50:59.251Z,1005.17
2019-02-07T11:51:59.229Z,1005.18
2019-02-07T11:52:59.217Z,1005.00
2019-02-07T11:53:59.275Z,1005.01
2019-02-07T11:54:59.257Z,1005.01
2019-02-07T11:55:59.207Z,1005.01
2019-02-07T11:56:59.215Z,1005.10
2019-02-07T11:57:59.226Z,1005.07
2019-02-07T11:58:59.261Z,1005.09
2019-02-07T11:59:59.193Z,1004.90
2019-02-07T12:00:59.165Z,1004.88
2019-02-07T12:02:08.715Z,1004.86
2019-02-07T12:03:00.118Z,1005.02
2019-02-07T12:03:59.166Z,1004.97
2019-02-07T12:04:59.145Z,1004.94